createdAt,value
2023-04-07T00:00:00.633Z,41.22
2023-04-07T00:01:04.303Z,41.23
2023-04-07T00:02:11.020Z,41.23
2023-04-07T00:03:16.571Z,41.19
2023-04-07T00:04:20.532Z,41.21
2023-04-07T00:05:25.462Z,41.18
2023-04-07T00:06:30.810Z,41.21
2023-04-07T00:07:42.077Z,41.18
2023-04-07T00:08:42.453Z,41.18
2023-04-07T00:09:48.411Z,41.19
2023-04-07T00:10:52.321Z,41.18
2023-04-07T00:11:57.016Z,41.18
2023-04-07T00:13:00.765Z,41.19
2023-04-07T00:14:06.040Z,41.19
2023-04-07T00:15:11.592Z,41.18
2023-04-07T00:16:16.358Z,41.18
2023-04-07T00:17:20.102Z,41.19
2023-04-07T00:18:22.958Z,41.19
2023-04-07T00:19:26.950Z,41.18
2023-04-07T00:20:30.923Z,41.14
2023-04-07T00:21:35.081Z,41.17
2023-04-07T00:22:39.140Z,41.17
2023-04-07T00:23:45.398Z,41.16
2023-04-07T00:24:49.649Z,41.16
2023-04-07T00:25:54.612Z,41.13
2023-04-07T00:26:58.513Z,41.13
2023-04-07T00:28:03.009Z,41.12
2023-04-07T00:29:07.447Z,41.13
2023-04-07T00:30:12.645Z,41.12
2023-04-07T00:31:17.737Z,41.13
2023-04-07T00:32:24.383Z,41.12
2023-04-07T00:33:28.620Z,41.12
2023-04-07T00:34:32.572Z,41.13
2023-04-07T00:35:38.405Z,41.12
2023-04-07T00:36:42.788Z,41.12
2023-04-07T00:37:48.027Z,41.11
2023-04-07T00:38:52.214Z,41.10
2023-04-07T00:39:59.430Z,41.11
2023-04-07T00:41:04.145Z,41.11
2023-04-07T00:42:08.057Z,41.08
2023-04-07T00:43:12.769Z,41.08
2023-04-07T00:44:17.649Z,41.10
2023-04-07T00:45:23.391Z,41.11
2023-04-07T00:46:28.282Z,41.08
2023-04-07T00:47:32.892Z,41.08
2023-04-07T00:48:38.081Z,40.68
2023-04-07T00:49:44.849Z,40.68
2023-04-07T00:50:48.726Z,41.05
2023-04-07T00:51:52.144Z,41.06
2023-04-07T00:52:56.537Z,41.05
2023-04-07T00:54:00.501Z,41.04
2023-04-07T00:55:03.995Z,41.04
2023-04-07T00:56:07.547Z,41.05
2023-04-07T00:57:14.913Z,41.04
2023-04-07T00:58:17.775Z,41.02
2023-04-07T00:59:21.449Z,41.04
2023-04-07T01:00:25.350Z,41.04
2023-04-07T01:01:50.728Z,41.01
2023-04-07T01:03:03.614Z,41.01
2023-04-07T01:04:13.972Z,40.98
2023-04-07T01:05:27.063Z,40.99
2023-04-07T01:06:31.503Z,41.00
2023-04-07T01:09:08.273Z,41.02
2023-04-07T01:10:13.653Z,41.03
2023-04-07T01:11:22.850Z,41.03
2023-04-07T01:12:38.747Z,41.04
2023-04-07T01:13:50.668Z,41.05
2023-04-07T01:15:10.795Z,41.07
2023-04-07T01:16:38.022Z,41.04
2023-04-07T01:17:46.152Z,41.07
2023-04-07T01:18:53.506Z,41.05
2023-04-07T01:21:16.444Z,41.07
2023-04-07T01:22:24.693Z,41.10
2023-04-07T01:23:44.831Z,41.11
2023-04-07T01:24:58.363Z,41.13
2023-04-07T01:26:09.673Z,41.09
2023-04-07T01:28:59.834Z,41.06
2023-04-07T01:30:03.678Z,41.06
2023-04-07T01:31:08.908Z,41.06
2023-04-07T01:32:12.572Z,41.09
2023-04-07T01:33:15.209Z,41.09
2023-04-07T01:34:21.019Z,41.10
2023-04-07T01:36:39.740Z,41.07
2023-04-07T01:37:46.246Z,41.05
2023-04-07T01:38:50.849Z,41.05
2023-04-07T01:39:55.989Z,41.04
2023-04-07T01:41:00.055Z,41.04
2023-04-07T01:42:04.008Z,41.02
2023-04-07T01:43:07.990Z,41.02
2023-04-07T01:45:26.515Z,40.99
2023-04-07T01:46:31.686Z,40.98
2023-04-07T01:47:41.106Z,40.97
2023-04-07T01:48:49.519Z,40.95
2023-04-07T01:49:54.331Z,40.92
2023-04-07T01:50:58.738Z,40.90
2023-04-07T01:52:03.490Z,40.88
2023-04-07T01:53:06.678Z,40.89
2023-04-07T01:54:09.233Z,40.88
2023-04-07T01:55:13.441Z,40.88
2023-04-07T01:56:22.465Z,40.86
2023-04-07T01:57:30.336Z,40.85
2023-04-07T01:58:35.239Z,40.85
2023-04-07T01:59:39.116Z,40.83
2023-04-07T02:00:43.260Z,40.84
2023-04-07T02:01:49.254Z,40.83
2023-04-07T02:02:55.937Z,40.82
2023-04-07T02:04:04.844Z,40.80
2023-04-07T02:05:09.891Z,40.78
2023-04-07T02:06:18.313Z,40.79
2023-04-07T02:07:32.023Z,40.77
2023-04-07T02:08:36.952Z,40.78
2023-04-07T02:09:41.147Z,40.76
2023-04-07T02:10:48.765Z,40.75
2023-04-07T02:11:53.436Z,40.79
2023-04-07T02:12:57.082Z,40.77
2023-04-07T02:14:00.025Z,40.78
2023-04-07T02:15:03.892Z,40.77
2023-04-07T02:16:08.345Z,40.78
2023-04-07T02:17:15.088Z,40.77
2023-04-07T02:18:18.249Z,40.78
2023-04-07T02:19:22.729Z,40.75
2023-04-07T02:20:28.751Z,40.79
2023-04-07T02:21:35.494Z,40.76
2023-04-07T02:22:38.912Z,40.74
2023-04-07T02:23:41.606Z,40.77
2023-04-07T02:24:45.236Z,40.73
2023-04-07T02:25:48.742Z,40.74
2023-04-07T02:26:52.035Z,40.76
2023-04-07T02:27:55.506Z,40.74
2023-04-07T02:28:58.997Z,40.72
2023-04-07T02:30:02.801Z,40.71
2023-04-07T02:31:06.806Z,40.71
2023-04-07T02:32:09.985Z,40.70
2023-04-07T02:33:12.503Z,40.70
2023-04-07T02:34:15.152Z,40.67
2023-04-07T02:35:19.133Z,40.67
2023-04-07T02:36:22.825Z,40.68
2023-04-07T02:37:26.367Z,40.67
2023-04-07T02:38:30.726Z,40.66
2023-04-07T02:39:34.427Z,40.66
2023-04-07T02:40:40.348Z,40.65
2023-04-07T02:41:42.783Z,40.64
2023-04-07T02:42:46.812Z,40.62
2023-04-07T02:43:51.209Z,40.62
2023-04-07T02:44:56.289Z,40.64
2023-04-07T02:46:01.851Z,40.64
2023-04-07T02:47:06.622Z,40.65
2023-04-07T02:48:09.105Z,40.68
2023-04-07T02:49:11.718Z,40.69
2023-04-07T02:50:14.797Z,40.70
2023-04-07T02:51:18.295Z,40.77
2023-04-07T02:52:23.193Z,40.77
2023-04-07T02:53:27.446Z,40.79
2023-04-07T02:54:32.512Z,40.82
2023-04-07T02:55:38.219Z,40.86
2023-04-07T02:56:43.414Z,40.86
2023-04-07T02:57:47.521Z,40.88
2023-04-07T02:58:53.562Z,40.88
2023-04-07T02:59:57.654Z,40.93
2023-04-07T03:01:05.753Z,40.93
2023-04-07T03:02:12.899Z,40.98
2023-04-07T03:03:16.796Z,41.01
2023-04-07T03:04:23.770Z,41.09
2023-04-07T03:05:28.858Z,41.11
2023-04-07T03:06:33.700Z,41.16
2023-04-07T03:07:41.690Z,41.20
2023-04-07T03:08:44.385Z,41.21
2023-04-07T03:09:47.986Z,41.24
2023-04-07T03:10:52.337Z,41.28
2023-04-07T03:11:58.484Z,41.28
2023-04-07T03:13:02.706Z,41.33
2023-04-07T03:14:06.491Z,41.36
2023-04-07T03:15:10.765Z,41.36
2023-04-07T03:16:15.587Z,41.36
2023-04-07T03:17:20.388Z,41.38
2023-04-07T03:18:24.232Z,41.38
2023-04-07T03:19:28.713Z,41.39
2023-04-07T03:20:33.831Z,41.38
2023-04-07T03:21:38.330Z,41.41
2023-04-07T03:22:43.075Z,41.39
2023-04-07T03:23:48.158Z,41.37
2023-04-07T03:24:51.529Z,41.39
2023-04-07T03:25:57.066Z,41.42
2023-04-07T03:27:05.584Z,41.47
2023-04-07T03:28:17.515Z,41.48
2023-04-07T03:29:22.408Z,41.47
2023-04-07T03:30:28.221Z,41.47
2023-04-07T03:31:33.912Z,41.48
2023-04-07T03:32:36.500Z,41.50
2023-04-07T03:33:38.993Z,41.53
2023-04-07T03:34:41.676Z,41.53
2023-04-07T03:35:45.402Z,41.54
2023-04-07T03:36:49.386Z,41.53
2023-04-07T03:37:53.520Z,41.53
2023-04-07T03:38:58.119Z,41.54
2023-04-07T03:40:03.814Z,41.55
2023-04-07T03:41:08.282Z,41.54
2023-04-07T03:42:12.782Z,41.53
2023-04-07T03:43:16.088Z,41.54
2023-04-07T03:44:20.578Z,41.54
2023-04-07T03:45:24.273Z,41.56
2023-04-07T03:46:27.711Z,41.55
2023-04-07T03:47:30.642Z,41.64
2023-04-07T03:48:36.007Z,41.71
2023-04-07T03:49:40.370Z,41.69
2023-04-07T03:50:44.635Z,41.69
2023-04-07T03:51:49.130Z,41.69
2023-04-07T03:52:54.396Z,41.70
2023-04-07T03:54:00.557Z,41.67
2023-04-07T03:55:09.776Z,41.69
2023-04-07T03:56:13.072Z,41.80
2023-04-07T03:57:18.108Z,41.80
2023-04-07T03:58:22.430Z,41.71
2023-04-07T03:59:25.811Z,41.75
2023-04-07T04:00:32.976Z,41.76
2023-04-07T04:01:46.321Z,41.76
2023-04-07T04:02:52.281Z,41.75
2023-04-07T04:03:57.424Z,41.76
2023-04-07T04:05:06.170Z,41.81
2023-04-07T04:06:10.967Z,41.81
2023-04-07T04:07:13.539Z,41.52
2023-04-07T04:08:24.773Z,41.52
2023-04-07T04:09:31.070Z,41.80
2023-04-07T04:10:35.217Z,41.81
2023-04-07T04:11:37.810Z,41.83
2023-04-07T04:12:42.400Z,41.84
2023-04-07T04:13:46.910Z,41.82
2023-04-07T04:14:50.232Z,41.87
2023-04-07T04:15:53.937Z,41.87
2023-04-07T04:16:57.050Z,41.88
2023-04-07T04:18:08.136Z,41.88
2023-04-07T04:19:13.049Z,41.88
2023-04-07T04:20:18.325Z,41.92
2023-04-07T04:21:27.003Z,41.92
2023-04-07T04:22:29.599Z,41.92
2023-04-07T04:23:33.319Z,41.93
2023-04-07T04:24:37.188Z,41.91
2023-04-07T04:25:41.633Z,41.88
2023-04-07T04:26:46.398Z,41.79
2023-04-07T04:27:50.686Z,41.66
2023-04-07T04:28:56.951Z,41.59
2023-04-07T04:30:01.800Z,41.44
2023-04-07T04:31:09.441Z,41.28
2023-04-07T04:32:14.154Z,41.11
2023-04-07T04:33:17.914Z,40.95
2023-04-07T04:34:22.460Z,40.68
2023-04-07T04:35:27.612Z,40.34
2023-04-07T04:36:44.754Z,40.01
2023-04-07T04:37:48.555Z,39.80
2023-04-07T04:38:51.275Z,39.70
2023-04-07T04:39:56.952Z,39.64
2023-04-07T04:40:59.981Z,39.59
2023-04-07T04:42:05.274Z,39.57
2023-04-07T04:43:11.082Z,39.55
2023-04-07T04:44:17.630Z,39.51
2023-04-07T04:45:21.829Z,39.48
2023-04-07T04:46:26.552Z,39.48
2023-04-07T04:47:30.061Z,39.46
2023-04-07T04:48:33.661Z,39.47
2023-04-07T04:49:36.842Z,39.50
2023-04-07T04:50:40.296Z,39.50
2023-04-07T04:51:45.745Z,39.52
2023-04-07T04:52:50.653Z,39.52
2023-04-07T04:53:55.874Z,39.51
2023-04-07T04:54:59.102Z,39.56
2023-04-07T04:56:03.987Z,39.56
2023-04-07T04:57:14.447Z,39.56
2023-04-07T04:58:17.786Z,39.61
2023-04-07T04:59:23.285Z,39.63
2023-04-07T05:00:28.738Z,39.67
2023-04-07T05:01:34.655Z,39.66
2023-04-07T05:02:41.096Z,39.67
2023-04-07T05:03:44.348Z,39.69
2023-04-07T05:04:49.085Z,39.70
2023-04-07T05:05:56.936Z,39.69
2023-04-07T05:07:01.159Z,39.68
2023-04-07T05:08:05.546Z,39.68
2023-04-07T05:09:10.332Z,39.66
2023-04-07T05:10:16.918Z,39.66
2023-04-07T05:11:23.391Z,39.64
2023-04-07T05:12:28.033Z,39.63
2023-04-07T05:13:34.451Z,39.66
2023-04-07T05:14:39.882Z,39.68
2023-04-07T05:15:44.364Z,39.69
2023-04-07T05:16:48.305Z,39.73
2023-04-07T05:17:53.371Z,39.78
2023-04-07T05:18:58.766Z,39.79
2023-04-07T05:20:02.620Z,39.80
2023-04-07T05:21:11.322Z,39.83
2023-04-07T05:22:15.356Z,39.80
2023-04-07T05:23:23.252Z,39.82
2023-04-07T05:24:28.290Z,39.78
2023-04-07T05:25:33.350Z,39.79
2023-04-07T05:26:39.553Z,39.79
2023-04-07T05:27:42.974Z,39.83
2023-04-07T05:28:47.270Z,39.83
2023-04-07T05:29:53.231Z,39.88
2023-04-07T05:30:57.951Z,39.88
2023-04-07T05:32:05.843Z,39.86
2023-04-07T05:33:23.032Z,39.88
2023-04-07T05:34:27.707Z,39.88
2023-04-07T05:35:30.979Z,39.85
2023-04-07T05:36:34.763Z,39.84
2023-04-07T05:37:37.646Z,39.80
2023-04-07T05:38:42.973Z,39.79
2023-04-07T05:39:47.369Z,39.77
2023-04-07T05:40:51.563Z,39.78
2023-04-07T05:41:59.948Z,39.73
2023-04-07T05:43:04.279Z,39.70
2023-04-07T05:44:07.716Z,39.69
2023-04-07T05:45:13.918Z,39.64
2023-04-07T05:46:18.755Z,39.60
2023-04-07T05:47:25.096Z,39.57
2023-04-07T05:48:27.931Z,39.52
2023-04-07T05:49:32.302Z,39.50
2023-04-07T05:50:36.788Z,39.46
2023-04-07T05:51:41.641Z,39.40
2023-04-07T05:52:46.591Z,39.39
